sensor_id;sensor_type;location;lat;lon;timestamp;pressure;altitude;pressure_sealevel;temperature;humidity
4858;BME280;58975;51.978;8.472;2024-03-06T00:00:15;100576.38;;;5.18;100.00
4858;BME280;58975;51.978;8.472;2024-03-06T00:05:12;100579.97;;;5.17;100.00
4858;BME280;58975;51.978;8.472;2024-03-06T00:10:09;100580.97;;;5.15;100.00
4858;BME280;58975;51.978;8.472;2024-03-06T00:15:06;100584.03;;;5.23;100.00
4858;BME280;58975;51.978;8.472;2024-03-06T00:20:02;100593.75;;;5.22;100.00
4858;BME280;58975;51.978;8.472;2024-03-06T00:25:01;100596.91;;;5.13;100.00
4858;BME280;58975;51.978;8.472;2024-03-06T00:29:59;100605.94;;;5.09;100.00
4858;BME280;58975;51.978;8.472;2024-03-06T00:34:55;100612.31;;;5.05;100.00
4858;BME280;58975;51.978;8.472;2024-03-06T00:39:52;100623.00;;;5.02;100.00
4858;BME280;58975;51.978;8.472;2024-03-06T00:44:48;100629.16;;;5.03;100.00
4858;BME280;58975;51.978;8.472;2024-03-06T00:49:45;100638.00;;;5.02;100.00
4858;BME280;58975;51.978;8.472;2024-03-06T00:54:41;100647.38;;;5.07;100.00
4858;BME280;58975;51.978;8.472;2024-03-06T00:59:38;100653.44;;;5.09;100.00
4858;BME280;58975;51.978;8.472;2024-03-06T01:04:34;100660.69;;;5.21;100.00
4858;BME280;58975;51.978;8.472;2024-03-06T01:09:32;100669.63;;;5.19;100.00
4858;BME280;58975;51.978;8.472;2024-03-06T01:14:28;100665.13;;;5.21;100.00
4858;BME280;58975;51.978;8.472;2024-03-06T01:19:25;100674.19;;;5.33;100.00
4858;BME280;58975;51.978;8.472;2024-03-06T01:24:21;100680.66;;;5.43;100.00
4858;BME280;58975;51.978;8.472;2024-03-06T01:29:17;100687.78;;;5.25;100.00
4858;BME280;58975;51.978;8.472;2024-03-06T01:34:14;100692.69;;;5.15;100.00
4858;BME280;58975;51.978;8.472;2024-03-06T01:39:11;100690.31;;;5.11;100.00
4858;BME280;58975;51.978;8.472;2024-03-06T01:44:07;100698.47;;;5.06;100.00
4858;BME280;58975;51.978;8.472;2024-03-06T01:49:04;100700.66;;;4.98;100.00
4858;BME280;58975;51.978;8.472;2024-03-06T01:54:01;100709.44;;;4.99;100.00
4858;BME280;58975;51.978;8.472;2024-03-06T01:59:00;100714.63;;;5.00;100.00
4858;BME280;58975;51.978;8.472;2024-03-06T02:04:00;100721.63;;;5.01;100.00
4858;BME280;58975;51.978;8.472;2024-03-06T02:08:57;100725.38;;;4.97;100.00
4858;BME280;58975;51.978;8.472;2024-03-06T02:13:53;100738.06;;;5.06;100.00
4858;BME280;58975;51.978;8.472;2024-03-06T02:23:50;100740.38;;;5.12;100.00
4858;BME280;58975;51.978;8.472;2024-03-06T02:28:48;100742.38;;;5.24;100.00
4858;BME280;58975;51.978;8.472;2024-03-06T02:33:47;100752.13;;;5.40;100.00
4858;BME280;58975;51.978;8.472;2024-03-06T02:38:44;100750.13;;;5.28;100.00
4858;BME280;58975;51.978;8.472;2024-03-06T02:43:41;100754.34;;;5.14;100.00
4858;BME280;58975;51.978;8.472;2024-03-06T02:48:38;100754.69;;;5.08;100.00
4858;BME280;58975;51.978;8.472;2024-03-06T02:53:35;100763.47;;;5.09;100.00
4858;BME280;58975;51.978;8.472;2024-03-06T02:58:32;100755.38;;;5.12;100.00
4858;BME280;58975;51.978;8.472;2024-03-06T03:03:28;100754.50;;;5.29;100.00
4858;BME280;58975;51.978;8.472;2024-03-06T03:08:25;100767.13;;;5.39;100.00
4858;BME280;58975;51.978;8.472;2024-03-06T03:13:22;100777.09;;;5.50;100.00
4858;BME280;58975;51.978;8.472;2024-03-06T03:18:18;100785.56;;;5.56;100.00
4858;BME280;58975;51.978;8.472;2024-03-06T03:23:15;100790.13;;;5.53;100.00
4858;BME280;58975;51.978;8.472;2024-03-06T03:28:18;100793.06;;;5.48;100.00
4858;BME280;58975;51.978;8.472;2024-03-06T03:33:14;100799.03;;;5.35;100.00
4858;BME280;58975;51.978;8.472;2024-03-06T03:38:11;100802.03;;;5.29;100.00
4858;BME280;58975;51.978;8.472;2024-03-06T03:43:07;100810.41;;;5.19;100.00
4858;BME280;58975;51.978;8.472;2024-03-06T03:48:05;100808.09;;;5.13;100.00
4858;BME280;58975;51.978;8.472;2024-03-06T03:53:01;100813.53;;;5.10;100.00
4858;BME280;58975;51.978;8.472;2024-03-06T03:57:58;100811.91;;;5.08;100.00
4858;BME280;58975;51.978;8.472;2024-03-06T04:02:54;100813.69;;;5.07;100.00
4858;BME280;58975;51.978;8.472;2024-03-06T04:07:51;100821.59;;;5.07;100.00
4858;BME280;58975;51.978;8.472;2024-03-06T04:12:47;100828.44;;;5.11;100.00
4858;BME280;58975;51.978;8.472;2024-03-06T04:17:44;100829.97;;;5.33;100.00
4858;BME280;58975;51.978;8.472;2024-03-06T04:22:40;100838.72;;;5.50;100.00
4858;BME280;58975;51.978;8.472;2024-03-06T04:27:37;100843.88;;;5.36;100.00
4858;BME280;58975;51.978;8.472;2024-03-06T04:32:33;100844.72;;;5.37;100.00
4858;BME280;58975;51.978;8.472;2024-03-06T04:37:30;100857.91;;;5.54;100.00
4858;BME280;58975;51.978;8.472;2024-03-06T04:42:27;100866.44;;;5.59;100.00
4858;BME280;58975;51.978;8.472;2024-03-06T04:47:24;100870.63;;;5.63;100.00
4858;BME280;58975;51.978;8.472;2024-03-06T04:52:25;100880.06;;;5.51;100.00
4858;BME280;58975;51.978;8.472;2024-03-06T04:57:22;100876.78;;;5.46;100.00
4858;BME280;58975;51.978;8.472;2024-03-06T05:02:18;100894.41;;;5.63;100.00
4858;BME280;58975;51.978;8.472;2024-03-06T05:07:14;100900.31;;;5.68;100.00
4858;BME280;58975;51.978;8.472;2024-03-06T05:12:28;100905.50;;;5.69;100.00
4858;BME280;58975;51.978;8.472;2024-03-06T05:17:43;100911.53;;;5.56;100.00
4858;BME280;58975;51.978;8.472;2024-03-06T05:22:58;100914.16;;;5.56;100.00
4858;BME280;58975;51.978;8.472;2024-03-06T05:28:11;100923.63;;;5.43;100.00
4858;BME280;58975;51.978;8.472;2024-03-06T05:33:26;100918.13;;;5.30;100.00
4858;BME280;58975;51.978;8.472;2024-03-06T05:38:42;100921.69;;;5.46;100.00
4858;BME280;58975;51.978;8.472;2024-03-06T05:43:56;100933.13;;;5.64;100.00
4858;BME280;58975;51.978;8.472;2024-03-06T05:49:10;100946.78;;;5.72;100.00
4858;BME280;58975;51.978;8.472;2024-03-06T05:54:25;100951.13;;;5.73;100.00
4858;BME280;58975;51.978;8.472;2024-03-06T05:59:38;100953.69;;;5.57;100.00
4858;BME280;58975;51.978;8.472;2024-03-06T06:04:36;100949.59;;;5.52;100.00
4858;BME280;58975;51.978;8.472;2024-03-06T06:09:46;100967.94;;;5.72;100.00
4858;BME280;58975;51.978;8.472;2024-03-06T06:14:43;100968.22;;;5.66;100.00
4858;BME280;58975;51.978;8.472;2024-03-06T06:19:42;100978.56;;;5.53;100.00
4858;BME280;58975;51.978;8.472;2024-03-06T06:24:38;100986.75;;;5.49;100.00
4858;BME280;58975;51.978;8.472;2024-03-06T06:29:35;100998.22;;;5.48;100.00
4858;BME280;58975;51.978;8.472;2024-03-06T06:34:32;100998.38;;;5.62;100.00
4858;BME280;58975;51.978;8.472;2024-03-06T06:39:28;101004.91;;;5.55;100.00
4858;BME280;58975;51.978;8.472;2024-03-06T06:44:25;101007.16;;;5.62;100.00
4858;BME280;58975;51.978;8.472;2024-03-06T06:49:21;101010.03;;;5.58;100.00
4858;BME280;58975;51.978;8.472;2024-03-06T06:54:18;101017.59;;;5.48;100.00
4858;BME280;58975;51.978;8.472;2024-03-06T06:59:14;101024.81;;;5.45;100.00
4858;BME280;58975;51.978;8.472;2024-03-06T07:04:10;101024.00;;;5.43;100.00
4858;BME280;58975;51.978;8.472;2024-03-06T07:09:07;101030.31;;;5.40;100.00
4858;BME280;58975;51.978;8.472;2024-03-06T07:14:05;101030.44;;;5.37;100.00
4858;BME280;58975;51.978;8.472;2024-03-06T07:19:02;101038.63;;;5.33;100.00
4858;BME280;58975;51.978;8.472;2024-03-06T07:23:58;101044.88;;;5.30;100.00
4858;BME280;58975;51.978;8.472;2024-03-06T07:28:55;101051.88;;;5.31;100.00
4858;BME280;58975;51.978;8.472;2024-03-06T07:33:52;101054.31;;;5.36;100.00
4858;BME280;58975;51.978;8.472;2024-03-06T07:38:48;101073.56;;;5.38;100.00
4858;BME280;58975;51.978;8.472;2024-03-06T07:43:45;101071.50;;;5.44;100.00
4858;BME280;58975;51.978;8.472;2024-03-06T07:48:44;101084.50;;;5.49;100.00
4858;BME280;58975;51.978;8.472;2024-03-06T07:53:40;101081.03;;;5.47;100.00
4858;BME280;58975;51.978;8.472;2024-03-06T07:58:37;101090.69;;;5.48;100.00
4858;BME280;58975;51.978;8.472;2024-03-06T08:03:33;101093.94;;;5.53;100.00
4858;BME280;58975;51.978;8.472;2024-03-06T08:08:30;101097.06;;;5.61;100.00
4858;BME280;58975;51.978;8.472;2024-03-06T08:13:27;101108.47;;;5.80;100.00
4858;BME280;58975;51.978;8.472;2024-03-06T08:18:23;101110.00;;;5.84;100.00
4858;BME280;58975;51.978;8.472;2024-03-06T08:23:20;101124.16;;;5.83;100.00
4858;BME280;58975;51.978;8.472;2024-03-06T08:28:17;101128.31;;;5.89;100.00
4858;BME280;58975;51.978;8.472;2024-03-06T08:33:13;101138.22;;;6.02;100.00
4858;BME280;58975;51.978;8.472;2024-03-06T08:38:10;101137.13;;;6.06;100.00
4858;BME280;58975;51.978;8.472;2024-03-06T08:43:06;101141.88;;;6.17;100.00
4858;BME280;58975;51.978;8.472;2024-03-06T08:48:05;101137.91;;;6.26;100.00
4858;BME280;58975;51.978;8.472;2024-03-06T08:53:02;101147.22;;;6.15;100.00
4858;BME280;58975;51.978;8.472;2024-03-06T08:57:58;101140.94;;;6.18;100.00
4858;BME280;58975;51.978;8.472;2024-03-06T09:02:57;101148.16;;;6.32;100.00
4858;BME280;58975;51.978;8.472;2024-03-06T09:07:53;101145.00;;;6.42;100.00
4858;BME280;58975;51.978;8.472;2024-03-06T09:12:50;101143.78;;;6.65;100.00
4858;BME280;58975;51.978;8.472;2024-03-06T09:17:46;101154.31;;;6.82;100.00
4858;BME280;58975;51.978;8.472;2024-03-06T09:22:43;101150.44;;;6.89;100.00
4858;BME280;58975;51.978;8.472;2024-03-06T09:27:40;101154.91;;;7.04;100.00
4858;BME280;58975;51.978;8.472;2024-03-06T09:32:37;101146.34;;;6.99;100.00
4858;BME280;58975;51.978;8.472;2024-03-06T09:37:34;101131.72;;;6.92;100.00
4858;BME280;58975;51.978;8.472;2024-03-06T09:42:31;101123.59;;;6.80;100.00
4858;BME280;58975;51.978;8.472;2024-03-06T09:47:30;101117.84;;;7.04;100.00
4858;BME280;58975;51.978;8.472;2024-03-06T09:52:29;101116.13;;;7.19;100.00
4858;BME280;58975;51.978;8.472;2024-03-06T09:57:26;101102.69;;;7.69;100.00
4858;BME280;58975;51.978;8.472;2024-03-06T10:02:28;101077.34;;;8.09;100.00
4858;BME280;58975;51.978;8.472;2024-03-06T10:07:27;101065.88;;;8.52;100.00
4858;BME280;58975;51.978;8.472;2024-03-06T10:12:23;101055.25;;;9.22;100.00
4858;BME280;58975;51.978;8.472;2024-03-06T10:17:21;101041.59;;;9.55;100.00
4858;BME280;58975;51.978;8.472;2024-03-06T10:22:24;101019.97;;;9.20;100.00
4858;BME280;58975;51.978;8.472;2024-03-06T10:27:21;101027.28;;;8.61;100.00
4858;BME280;58975;51.978;8.472;2024-03-06T10:32:18;101024.00;;;8.28;100.00
4858;BME280;58975;51.978;8.472;2024-03-06T10:37:18;101029.06;;;8.32;100.00
4858;BME280;58975;51.978;8.472;2024-03-06T10:42:15;101035.63;;;8.41;100.00
4858;BME280;58975;51.978;8.472;2024-03-06T10:47:13;101040.75;;;8.44;100.00
4858;BME280;58975;51.978;8.472;2024-03-06T10:52:11;101040.25;;;7.93;100.00
4858;BME280;58975;51.978;8.472;2024-03-06T10:57:09;101052.69;;;7.63;100.00
4858;BME280;58975;51.978;8.472;2024-03-06T11:02:06;101054.38;;;7.64;100.00
4858;BME280;58975;51.978;8.472;2024-03-06T11:07:05;101062.97;;;7.38;100.00
4858;BME280;58975;51.978;8.472;2024-03-06T11:12:02;101072.22;;;7.15;100.00
4858;BME280;58975;51.978;8.472;2024-03-06T11:17:05;101087.22;;;6.99;100.00
4858;BME280;58975;51.978;8.472;2024-03-06T11:22:04;101085.78;;;6.93;100.00
4858;BME280;58975;51.978;8.472;2024-03-06T11:27:04;101092.69;;;6.96;100.00
4858;BME280;58975;51.978;8.472;2024-03-06T11:32:06;101104.22;;;6.95;100.00
4858;BME280;58975;51.978;8.472;2024-03-06T11:37:07;101098.88;;;7.28;100.00
4858;BME280;58975;51.978;8.472;2024-03-06T11:42:06;101107.06;;;7.39;100.00
4858;BME280;58975;51.978;8.472;2024-03-06T11:47:06;101107.56;;;7.45;100.00
4858;BME280;58975;51.978;8.472;2024-03-06T11:52:07;101109.78;;;7.69;100.00
4858;BME280;58975;51.978;8.472;2024-03-06T11:57:07;101105.88;;;7.60;100.00
4858;BME280;58975;51.978;8.472;2024-03-06T12:02:05;101107.41;;;7.64;100.00
4858;BME280;58975;51.978;8.472;2024-03-06T12:07:02;101106.47;;;7.49;100.00
4858;BME280;58975;51.978;8.472;2024-03-06T12:12:02;101115.19;;;7.36;100.00
4858;BME280;58975;51.978;8.472;2024-03-06T12:17:01;101117.94;;;7.34;100.00
4858;BME280;58975;51.978;8.472;2024-03-06T12:22:01;101122.28;;;7.35;100.00
4858;BME280;58975;51.978;8.472;2024-03-06T12:27:02;101117.50;;;7.42;100.00
4858;BME280;58975;51.978;8.472;2024-03-06T12:32:01;101112.81;;;7.47;100.00
4858;BME280;58975;51.978;8.472;2024-03-06T12:37:10;101109.84;;;7.83;100.00
4858;BME280;58975;51.978;8.472;2024-03-06T12:42:07;101107.97;;;8.15;100.00
4858;BME280;58975;51.978;8.472;2024-03-06T12:47:04;101101.09;;;8.26;100.00
4858;BME280;58975;51.978;8.472;2024-03-06T12:52:01;101104.25;;;8.47;100.00
4858;BME280;58975;51.978;8.472;2024-03-06T12:57:01;101104.38;;;8.60;100.00
4858;BME280;58975;51.978;8.472;2024-03-06T13:01:57;101094.81;;;8.57;100.00
4858;BME280;58975;51.978;8.472;2024-03-06T13:06:54;101087.88;;;8.54;100.00
4858;BME280;58975;51.978;8.472;2024-03-06T13:11:50;101087.22;;;8.65;100.00
4858;BME280;58975;51.978;8.472;2024-03-06T13:16:47;101088.53;;;9.00;100.00
4858;BME280;58975;51.978;8.472;2024-03-06T13:21:43;101091.72;;;9.20;100.00
4858;BME280;58975;51.978;8.472;2024-03-06T13:26:40;101093.19;;;8.83;100.00
4858;BME280;58975;51.978;8.472;2024-03-06T13:31:37;101093.09;;;8.70;100.00
4858;BME280;58975;51.978;8.472;2024-03-06T13:36:34;101099.91;;;8.88;100.00
4858;BME280;58975;51.978;8.472;2024-03-06T13:41:30;101097.44;;;8.99;100.00
4858;BME280;58975;51.978;8.472;2024-03-06T13:46:27;101105.44;;;8.85;100.00
4858;BME280;58975;51.978;8.472;2024-03-06T13:51:23;101102.66;;;8.59;100.00
4858;BME280;58975;51.978;8.472;2024-03-06T13:56:20;101103.03;;;8.52;100.00
4858;BME280;58975;51.978;8.472;2024-03-06T14:01:16;101110.59;;;8.44;100.00
4858;BME280;58975;51.978;8.472;2024-03-06T14:06:13;101110.06;;;8.68;100.00
4858;BME280;58975;51.978;8.472;2024-03-06T14:11:09;101105.50;;;8.98;100.00
4858;BME280;58975;51.978;8.472;2024-03-06T14:16:08;101116.13;;;8.98;100.00
4858;BME280;58975;51.978;8.472;2024-03-06T14:21:04;101109.97;;;8.97;100.00
4858;BME280;58975;51.978;8.472;2024-03-06T14:26:01;101114.91;;;8.89;100.00
4858;BME280;58975;51.978;8.472;2024-03-06T14:30:58;101119.81;;;9.10;100.00
4858;BME280;58975;51.978;8.472;2024-03-06T14:35:55;101118.59;;;8.87;100.00
4858;BME280;58975;51.978;8.472;2024-03-06T14:40:51;101127.88;;;8.51;100.00
4858;BME280;58975;51.978;8.472;2024-03-06T14:45:47;101114.59;;;8.37;100.00
4858;BME280;58975;51.978;8.472;2024-03-06T14:50:44;101118.09;;;8.52;100.00
4858;BME280;58975;51.978;8.472;2024-03-06T14:55:42;101113.78;;;8.65;100.00
4858;BME280;58975;51.978;8.472;2024-03-06T15:00:38;101119.03;;;8.37;100.00
4858;BME280;58975;51.978;8.472;2024-03-06T15:05:35;101113.13;;;8.32;100.00
4858;BME280;58975;51.978;8.472;2024-03-06T15:10:32;101122.63;;;8.36;100.00
4858;BME280;58975;51.978;8.472;2024-03-06T15:15:29;101124.94;;;8.56;100.00
4858;BME280;58975;51.978;8.472;2024-03-06T15:20:27;101125.50;;;8.47;100.00
4858;BME280;58975;51.978;8.472;2024-03-06T15:25:25;101124.47;;;8.64;100.00
4858;BME280;58975;51.978;8.472;2024-03-06T15:30:21;101124.94;;;8.56;100.00
4858;BME280;58975;51.978;8.472;2024-03-06T15:35:18;101126.78;;;8.70;100.00
4858;BME280;58975;51.978;8.472;2024-03-06T15:40:14;101126.47;;;9.17;100.00
4858;BME280;58975;51.978;8.472;2024-03-06T15:45:11;101126.94;;;9.64;100.00
4858;BME280;58975;51.978;8.472;2024-03-06T15:50:08;101124.00;;;9.81;100.00
4858;BME280;58975;51.978;8.472;2024-03-06T15:55:07;101125.00;;;9.39;100.00
4858;BME280;58975;51.978;8.472;2024-03-06T16:00:08;101126.06;;;9.23;100.00
4858;BME280;58975;51.978;8.472;2024-03-06T16:05:09;101130.84;;;8.75;100.00
4858;BME280;58975;51.978;8.472;2024-03-06T16:10:06;101138.13;;;8.28;100.00
4858;BME280;58975;51.978;8.472;2024-03-06T16:15:03;101140.78;;;8.28;100.00
4858;BME280;58975;51.978;8.472;2024-03-06T16:20:00;101142.19;;;8.35;100.00
4858;BME280;58975;51.978;8.472;2024-03-06T16:25:01;101157.56;;;8.28;100.00
4858;BME280;58975;51.978;8.472;2024-03-06T16:29:57;101157.56;;;8.28;100.00
4858;BME280;58975;51.978;8.472;2024-03-06T16:34:54;101157.13;;;7.90;100.00
4858;BME280;58975;51.978;8.472;2024-03-06T16:39:50;101165.97;;;7.75;100.00
4858;BME280;58975;51.978;8.472;2024-03-06T16:44:47;101174.78;;;7.60;100.00
4858;BME280;58975;51.978;8.472;2024-03-06T16:49:44;101181.34;;;7.53;100.00
4858;BME280;58975;51.978;8.472;2024-03-06T16:54:40;101173.56;;;7.50;100.00
4858;BME280;58975;51.978;8.472;2024-03-06T16:59:37;101191.19;;;7.51;100.00
4858;BME280;58975;51.978;8.472;2024-03-06T17:04:34;101189.16;;;7.40;100.00
4858;BME280;58975;51.978;8.472;2024-03-06T17:09:31;101192.13;;;7.34;100.00
4858;BME280;58975;51.978;8.472;2024-03-06T17:14:27;101194.91;;;7.16;100.00
4858;BME280;58975;51.978;8.472;2024-03-06T17:19:27;101188.00;;;7.13;100.00
4858;BME280;58975;51.978;8.472;2024-03-06T17:24:24;101195.56;;;7.03;100.00
4858;BME280;58975;51.978;8.472;2024-03-06T17:29:20;101222.22;;;7.00;100.00
4858;BME280;58975;51.978;8.472;2024-03-06T17:34:17;101222.03;;;7.03;100.00
4858;BME280;58975;51.978;8.472;2024-03-06T17:39:14;101223.75;;;7.04;100.00
4858;BME280;58975;51.978;8.472;2024-03-06T17:44:11;101232.63;;;7.03;100.00
4858;BME280;58975;51.978;8.472;2024-03-06T17:49:08;101229.91;;;7.05;100.00
4858;BME280;58975;51.978;8.472;2024-03-06T17:54:05;101236.16;;;7.04;100.00
4858;BME280;58975;51.978;8.472;2024-03-06T17:59:06;101239.03;;;6.99;100.00
4858;BME280;58975;51.978;8.472;2024-03-06T18:04:03;101244.63;;;7.10;100.00
4858;BME280;58975;51.978;8.472;2024-03-06T18:09:00;101247.25;;;7.10;100.00
4858;BME280;58975;51.978;8.472;2024-03-06T18:13:56;101250.94;;;7.08;100.00
4858;BME280;58975;51.978;8.472;2024-03-06T18:18:53;101252.28;;;6.99;100.00
4858;BME280;58975;51.978;8.472;2024-03-06T18:23:49;101248.88;;;6.97;100.00
4858;BME280;58975;51.978;8.472;2024-03-06T18:28:46;101245.25;;;6.98;100.00
4858;BME280;58975;51.978;8.472;2024-03-06T18:33:42;101248.00;;;6.97;100.00
4858;BME280;58975;51.978;8.472;2024-03-06T18:38:39;101255.16;;;6.95;100.00
4858;BME280;58975;51.978;8.472;2024-03-06T18:43:36;101261.66;;;6.89;100.00
4858;BME280;58975;51.978;8.472;2024-03-06T18:48:32;101256.25;;;6.91;100.00
4858;BME280;58975;51.978;8.472;2024-03-06T18:53:29;101257.34;;;6.87;100.00
4858;BME280;58975;51.978;8.472;2024-03-06T18:58:25;101259.94;;;6.88;100.00
4858;BME280;58975;51.978;8.472;2024-03-06T19:03:23;101269.72;;;6.86;100.00
4858;BME280;58975;51.978;8.472;2024-03-06T19:08:20;101264.44;;;6.86;100.00
4858;BME280;58975;51.978;8.472;2024-03-06T19:13:17;101274.66;;;6.94;100.00
4858;BME280;58975;51.978;8.472;2024-03-06T19:18:13;101273.09;;;6.90;100.00
4858;BME280;58975;51.978;8.472;2024-03-06T19:23:10;101283.91;;;6.85;100.00
4858;BME280;58975;51.978;8.472;2024-03-06T19:28:06;101286.78;;;6.81;100.00
4858;BME280;58975;51.978;8.472;2024-03-06T19:33:04;101281.41;;;6.82;100.00
4858;BME280;58975;51.978;8.472;2024-03-06T19:38:00;101283.44;;;6.77;100.00
4858;BME280;58975;51.978;8.472;2024-03-06T19:42:57;101286.84;;;6.79;100.00
4858;BME280;58975;51.978;8.472;2024-03-06T19:47:53;101283.44;;;6.77;100.00
4858;BME280;58975;51.978;8.472;2024-03-06T19:52:50;101283.44;;;6.77;100.00
4858;BME280;58975;51.978;8.472;2024-03-06T19:57:48;101283.69;;;6.73;100.00
4858;BME280;58975;51.978;8.472;2024-03-06T20:02:44;101292.31;;;6.76;100.00
4858;BME280;58975;51.978;8.472;2024-03-06T20:07:41;101287.03;;;6.76;100.00
4858;BME280;58975;51.978;8.472;2024-03-06T20:12:37;101286.16;;;6.76;100.00
4858;BME280;58975;51.978;8.472;2024-03-06T20:17:34;101280.09;;;6.74;100.00
4858;BME280;58975;51.978;8.472;2024-03-06T20:22:30;101284.59;;;6.72;100.00
4858;BME280;58975;51.978;8.472;2024-03-06T20:27:27;101292.31;;;6.76;100.00
4858;BME280;58975;51.978;8.472;2024-03-06T20:32:24;101285.16;;;6.78;100.00
4858;BME280;58975;51.978;8.472;2024-03-06T20:37:21;101286.47;;;6.70;100.00
4858;BME280;58975;51.978;8.472;2024-03-06T20:42:17;101298.88;;;6.69;100.00
4858;BME280;58975;51.978;8.472;2024-03-06T20:47:14;101298.91;;;6.68;100.00
4858;BME280;58975;51.978;8.472;2024-03-06T20:52:11;101298.06;;;6.67;100.00
4858;BME280;58975;51.978;8.472;2024-03-06T20:57:07;101298.22;;;6.64;100.00
4858;BME280;58975;51.978;8.472;2024-03-06T21:02:05;101302.81;;;6.60;100.00
4858;BME280;58975;51.978;8.472;2024-03-06T21:07:07;101305.78;;;6.54;100.00
4858;BME280;58975;51.978;8.472;2024-03-06T21:12:05;101310.06;;;6.57;100.00
4858;BME280;58975;51.978;8.472;2024-03-06T21:17:03;101308.34;;;6.56;100.00
4858;BME280;58975;51.978;8.472;2024-03-06T21:22:02;101302.72;;;6.45;100.00
4858;BME280;58975;51.978;8.472;2024-03-06T21:27:04;101300.00;;;6.46;100.00
4858;BME280;58975;51.978;8.472;2024-03-06T21:32:02;101304.72;;;6.40;100.00
4858;BME280;58975;51.978;8.472;2024-03-06T21:37:00;101305.91;;;6.34;100.00
4858;BME280;58975;51.978;8.472;2024-03-06T21:41:56;101302.75;;;6.26;100.00
4858;BME280;58975;51.978;8.472;2024-03-06T21:46:53;101311.19;;;6.15;100.00
4858;BME280;58975;51.978;8.472;2024-03-06T21:51:50;101306.03;;;5.95;100.00
4858;BME280;58975;51.978;8.472;2024-03-06T21:56:46;101309.75;;;5.71;100.00
4858;BME280;58975;51.978;8.472;2024-03-06T22:01:43;101321.03;;;5.56;100.00
4858;BME280;58975;51.978;8.472;2024-03-06T22:06:40;101316.84;;;5.32;100.00
4858;BME280;58975;51.978;8.472;2024-03-06T22:11:43;101324.53;;;4.97;100.00
4858;BME280;58975;51.978;8.472;2024-03-06T22:16:40;101329.59;;;4.82;100.00
4858;BME280;58975;51.978;8.472;2024-03-06T22:21:37;101337.16;;;4.69;100.00
4858;BME280;58975;51.978;8.472;2024-03-06T22:26:34;101338.97;;;4.47;100.00
4858;BME280;58975;51.978;8.472;2024-03-06T22:31:30;101338.41;;;4.39;100.00
4858;BME280;58975;51.978;8.472;2024-03-06T22:36:27;101334.59;;;4.24;100.00
4858;BME280;58975;51.978;8.472;2024-03-06T22:41:23;101335.25;;;4.07;100.00
4858;BME280;58975;51.978;8.472;2024-03-06T22:46:21;101346.44;;;3.91;100.00
4858;BME280;58975;51.978;8.472;2024-03-06T22:51:19;101347.91;;;3.76;100.00
4858;BME280;58975;51.978;8.472;2024-03-06T22:56:15;101340.91;;;3.75;100.00
4858;BME280;58975;51.978;8.472;2024-03-06T23:01:13;101346.50;;;3.66;100.00
4858;BME280;58975;51.978;8.472;2024-03-06T23:06:09;101343.28;;;3.58;100.00
4858;BME280;58975;51.978;8.472;2024-03-06T23:11:07;101345.06;;;3.57;100.00
4858;BME280;58975;51.978;8.472;2024-03-06T23:16:04;101343.66;;;3.49;100.00
4858;BME280;58975;51.978;8.472;2024-03-06T23:21:01;101344.16;;;3.33;100.00
4858;BME280;58975;51.978;8.472;2024-03-06T23:25:57;101353.09;;;3.29;100.00
4858;BME280;58975;51.978;8.472;2024-03-06T23:30:54;101342.09;;;3.18;100.00
4858;BME280;58975;51.978;8.472;2024-03-06T23:35:50;101341.72;;;3.04;100.00
4858;BME280;58975;51.978;8.472;2024-03-06T23:40:47;101348.38;;;2.90;100.00
4858;BME280;58975;51.978;8.472;2024-03-06T23:45:44;101349.44;;;2.84;100.00
4858;BME280;58975;51.978;8.472;2024-03-06T23:50:40;101349.66;;;2.78;100.00
4858;BME280;58975;51.978;8.472;2024-03-06T23:55:37;101343.72;;;2.71;100.00
